Time;durP1;ratioP1;P1;durP2;ratioP2;P2;SDS_P1;SDS_P2;PMS_P1;PMS_P2;Temp;Humidity;BMP_temperature;BMP_pressure;BME280_temperature;BME280_humidity;BME280_pressure;Samples;Min_cycle;Max_cycle;Signal;HPM_P1;HPM_P2
2023/07/12 00:01:13;;;;;;;4.47;3.15;;;;;;;16.28;70.13;99403.66;5000650;28;20046;-50
2023/07/12 00:03:40;;;;;;;4.97;3.95;;;;;;;16.29;70.36;99405.34;4999195;28;20520;-44
2023/07/12 00:06:18;;;;;;;4.35;2.38;;;;;;;16.29;70.27;99405.34;5000871;28;20516;-46
2023/07/12 00:08:45;;;;;;;3.55;3.03;;;;;;;16.31;69.76;99400.91;5001813;28;20046;-45
2023/07/12 00:13:54;;;;;;;5.13;2.22;;;;;;;16.30;70.11;99402.69;5036616;27;20406;-52
2023/07/12 00:16:25;;;;;;;5.93;1.52;;;;;;;16.27;70.06;99402.78;5004359;28;20592;-47
2023/07/12 00:18:53;;;;;;;4.28;1.77;;;;;;;16.24;69.89;99409.91;5000229;28;20116;-43
2023/07/12 00:21:22;;;;;;;4.47;1.42;;;;;;;16.18;69.88;99398.75;4998997;28;20046;-49
2023/07/12 00:23:52;;;;;;;4.90;1.48;;;;;;;16.14;70.09;99401.53;4983275;28;20067;-46
2023/07/12 00:26:31;;;;;;;5.25;2.25;;;;;;;16.06;70.08;99399.19;4987454;28;20096;-51
2023/07/12 00:28:59;;;;;;;3.55;1.63;;;;;;;16.06;70.28;99404.41;4995293;28;20750;-50
2023/07/12 00:31:30;;;;;;;4.00;1.58;;;;;;;16.02;70.64;99405.44;5008702;28;20042;-44
2023/07/12 00:33:57;;;;;;;4.35;1.58;;;;;;;15.97;70.54;99399.53;4997362;28;20524;-45
2023/07/12 00:36:27;;;;;;;7.93;1.60;;;;;;;15.93;70.71;99410.06;4998638;28;20046;-48
2023/07/12 00:38:54;;;;;;;7.47;2.05;;;;;;;15.89;70.47;99403.22;4998430;28;20053;-52
2023/07/12 00:42:01;;;;;;;4.90;1.33;;;;;;;15.79;70.56;99412.28;4996676;28;20615;-47
2023/07/12 00:47:11;;;;;;;5.07;1.90;;;;;;;15.77;70.76;99408.88;5034721;27;20402;-48
2023/07/12 00:49:38;;;;;;;4.72;1.60;;;;;;;15.72;70.69;99416.88;5013725;28;20104;-43
2023/07/12 00:55:04;;;;;;;6.70;2.40;;;;;;;15.59;70.81;99416.44;5045490;28;20887;-47
2023/07/12 00:57:32;;;;;;;5.20;1.90;;;;;;;15.61;70.69;99414.63;4999498;28;20050;-42
2023/07/12 01:00:04;;;;;;;7.82;4.03;;;;;;;15.59;70.47;99420.78;4996501;28;20441;-48
2023/07/12 01:02:31;;;;;;;4.18;1.42;;;;;;;15.54;70.60;99415.75;5000113;28;20490;-47
2023/07/12 01:04:59;;;;;;;9.27;1.75;;;;;;;15.51;70.57;99413.22;5001661;28;20057;-50
2023/07/12 01:07:29;;;;;;;6.05;2.17;;;;;;;15.46;70.44;99415.13;5005020;28;20038;-48
2023/07/12 01:09:56;;;;;;;;;;;;;;;15.23;71.18;99408.94;5003385;28;20125;-49
2023/07/12 01:12:22;;;;;;;8.57;1.92;;;;;;;15.35;71.08;99408.53;4999737;28;19965;-46
2023/07/12 01:14:49;;;;;;;4.68;1.92;;;;;;;15.33;70.64;99414.69;5003894;28;20210;-44
2023/07/12 01:17:16;;;;;;;3.25;1.65;;;;;;;15.31;70.89;99417.34;4997132;28;20108;-51
2023/07/12 01:19:43;;;;;;;5.30;1.92;;;;;;;15.29;70.67;99412.19;5002998;28;20054;-46
2023/07/12 01:22:09;;;;;;;4.63;2.03;;;;;;;15.27;70.51;99411.38;4997883;28;20136;-43
2023/07/12 01:24:36;;;;;;;3.88;1.92;;;;;;;15.24;70.40;99402.78;4996634;28;20053;-50
2023/07/12 01:27:13;;;;;;;3.33;1.88;;;;;;;15.18;70.21;99413.41;5000109;28;20073;-53
2023/07/12 01:29:40;;;;;;;5.15;1.85;;;;;;;15.14;71.07;99405.69;4999044;28;20133;-49
2023/07/12 01:32:08;;;;;;;5.88;2.03;;;;;;;15.12;70.68;99412.72;4995821;28;20041;-44
2023/07/12 01:34:34;;;;;;;7.00;2.35;;;;;;;15.10;71.14;99411.91;4999561;28;20046;-46
2023/07/12 01:37:04;;;;;;;4.97;1.58;;;;;;;15.07;70.91;99413.78;5002514;28;20060;-45
2023/07/12 01:39:32;;;;;;;5.97;2.75;;;;;;;15.03;71.05;99419.06;4999476;28;20379;-44
2023/07/12 01:42:00;;;;;;;6.70;1.67;;;;;;;15.00;70.90;99423.53;4999830;28;20065;-52
2023/07/12 01:44:27;;;;;;;5.63;1.98;;;;;;;14.96;70.59;99417.56;5000223;28;20049;-48
2023/07/12 01:46:54;;;;;;;3.85;1.50;;;;;;;14.94;71.20;99423.72;4994737;28;20046;-53
2023/07/12 01:49:21;;;;;;;3.17;1.52;;;;;;;14.90;71.50;99422.97;5000388;28;20140;-49
2023/07/12 01:51:49;;;;;;;4.22;2.15;;;;;;;14.88;71.47;99419.56;4997495;28;20050;-47
2023/07/12 01:54:15;;;;;;;10.60;2.38;;;;;;;14.85;71.39;99428.31;4998777;28;20048;-44
2023/07/12 01:56:43;;;;;;;6.85;2.10;;;;;;;14.83;71.07;99424.91;4999459;28;20085;-43
2023/07/12 01:59:10;;;;;;;8.55;2.65;;;;;;;14.80;70.70;99430.22;5000219;28;20053;-44
2023/07/12 02:01:37;;;;;;;4.55;1.83;;;;;;;14.80;71.33;99421.53;5001743;28;20053;-45
2023/07/12 02:04:04;;;;;;;8.02;2.05;;;;;;;14.78;71.23;99421.59;4998146;28;20057;-54
2023/07/12 02:06:30;;;;;;;7.40;2.38;;;;;;;14.75;71.14;99414.69;4983289;28;20081;-50
2023/07/12 02:08:57;;;;;;;5.85;1.92;;;;;;;14.74;71.60;99423.41;4984562;28;20046;-46
2023/07/12 02:11:24;;;;;;;7.13;1.83;;;;;;;14.71;71.45;99418.28;4982294;28;20050;-43
2023/07/12 02:13:50;;;;;;;4.85;1.92;;;;;;;14.70;71.13;99415.72;4977311;28;20051;-45
2023/07/12 02:16:17;;;;;;;3.97;1.73;;;;;;;14.67;71.19;99421.88;4971996;28;20042;-48
2023/07/12 02:18:44;;;;;;;6.45;2.33;;;;;;;14.65;71.21;99413.25;4978807;28;20537;-42
2023/07/12 02:21:10;;;;;;;4.70;2.00;;;;;;;14.62;71.28;99408.97;4980939;28;20074;-48
2023/07/12 02:23:37;;;;;;;6.28;1.85;;;;;;;14.61;71.29;99407.28;4980558;28;20050;-40
2023/07/12 02:26:04;;;;;;;5.03;1.70;;;;;;;14.59;71.50;99414.28;4979280;28;20046;-45
2023/07/12 02:28:31;;;;;;;9.45;2.22;;;;;;;14.57;71.40;99413.50;4984916;28;20108;-47
2023/07/12 02:31:19;;;;;;;6.78;1.95;;;;;;;14.46;71.32;99418.16;4978184;28;20058;-49
2023/07/12 02:33:47;;;;;;;5.60;1.63;;;;;;;14.51;71.82;99411.06;4972016;28;20062;-46
2023/07/12 02:36:14;;;;;;;3.75;1.52;;;;;;;14.49;71.05;99418.06;4983076;28;20093;-48
2023/07/12 02:38:41;;;;;;;6.95;1.60;;;;;;;14.47;71.46;99417.25;4982556;28;20050;-50
2023/07/12 02:41:08;;;;;;;6.97;1.92;;;;;;;14.45;71.37;99417.28;4975518;28;20072;-50
2023/07/12 02:43:35;;;;;;;6.88;2.55;;;;;;;14.45;71.64;99419.06;4985657;28;20243;-45
2023/07/12 02:46:03;;;;;;;3.17;1.35;;;;;;;14.42;71.55;99417.38;4982640;28;20050;-46
2023/07/12 02:48:30;;;;;;;6.55;1.85;;;;;;;14.43;71.91;99418.25;4980420;28;20046;-48
2023/07/12 02:50:56;;;;;;;5.65;1.80;;;;;;;14.44;71.83;99435.56;4985587;28;20046;-47
2023/07/12 02:53:23;;;;;;;4.28;1.85;;;;;;;14.44;72.15;99427.75;4981641;28;20514;-55
2023/07/12 02:55:50;;;;;;;6.38;1.73;;;;;;;14.44;72.43;99425.16;4979332;28;20542;-47
2023/07/12 02:58:18;;;;;;;4.75;2.35;;;;;;;14.44;72.08;99427.75;4979795;28;20050;-50
2023/07/12 03:00:44;;;;;;;6.20;1.55;;;;;;;14.43;72.15;99423.44;4976400;28;20047;-51
2023/07/12 03:03:12;;;;;;;7.15;1.88;;;;;;;14.39;72.22;99433.97;4978645;28;20050;-46
2023/07/12 03:05:39;;;;;;;6.88;2.92;;;;;;;14.37;72.09;99435.75;4974278;28;20427;-50
2023/07/12 03:08:07;;;;;;;9.55;1.65;;;;;;;14.35;71.98;99437.53;4982256;28;20046;-50
2023/07/12 03:10:36;;;;;;;7.43;1.42;;;;;;;14.35;71.28;99436.69;4984393;28;20133;-49
2023/07/12 03:13:03;;;;;;;4.28;1.55;;;;;;;14.33;72.11;99443.69;4983613;28;20058;-44
2023/07/12 03:15:30;;;;;;;4.63;1.67;;;;;;;14.31;72.29;99442.88;4983272;28;20053;-47
2023/07/12 03:17:56;;;;;;;4.10;1.85;;;;;;;14.29;72.29;99437.75;4980297;28;20129;-47
2023/07/12 03:20:23;;;;;;;3.38;1.50;;;;;;;14.27;72.35;99439.53;4975541;28;20050;-52
2023/07/12 03:22:50;;;;;;;4.55;1.67;;;;;;;14.26;72.52;99445.63;4978926;28;20046;-43
2023/07/12 03:25:16;;;;;;;5.40;1.42;;;;;;;14.24;71.82;99434.38;4983469;28;20713;-49
2023/07/12 03:27:43;;;;;;;4.45;1.70;;;;;;;14.22;72.01;99433.59;4980595;28;20080;-50
2023/07/12 03:30:10;;;;;;;3.60;1.67;;;;;;;14.21;72.63;99434.47;4982185;28;20050;-46
2023/07/12 03:32:36;;;;;;;9.73;2.13;;;;;;;14.19;72.45;99426.69;4981835;28;20609;-50
2023/07/12 03:35:03;;;;;;;6.80;2.65;;;;;;;14.17;72.33;99438.91;4977607;28;20407;-44
2023/07/12 03:37:30;;;;;;;8.02;1.85;;;;;;;14.18;72.21;99437.19;4980341;28;20046;-48
2023/07/12 03:39:57;;;;;;;5.78;1.55;;;;;;;14.17;72.08;99438.06;4984769;28;20043;-48
2023/07/12 03:42:23;;;;;;;3.70;2.22;;;;;;;14.14;72.15;99439.88;4983198;28;20050;-45
2023/07/12 03:44:50;;;;;;;5.00;1.48;;;;;;;14.13;72.77;99438.16;4977920;28;20042;-48
2023/07/12 03:47:17;;;;;;;3.53;1.35;;;;;;;14.13;72.76;99425.16;4980759;28;20073;-50
2023/07/12 03:49:43;;;;;;;5.75;1.85;;;;;;;14.13;72.97;99432.09;4982528;28;20065;-51
2023/07/12 03:52:10;;;;;;;5.20;2.05;;;;;;;14.11;72.54;99429.53;4978316;28;20050;-43
2023/07/12 03:54:37;;;;;;;4.72;1.55;;;;;;;14.10;72.28;99425.22;4983582;28;20057;-45
2023/07/12 03:57:04;;;;;;;3.22;1.77;;;;;;;14.10;72.51;99438.25;4980233;28;20047;-48
2023/07/12 03:59:30;;;;;;;5.53;2.30;;;;;;;14.08;72.65;99429.59;4983247;28;20057;-47
2023/07/12 04:01:57;;;;;;;5.88;1.58;;;;;;;14.07;72.95;99437.44;4984334;28;20042;-54
2023/07/12 04:04:24;;;;;;;7.63;2.05;;;;;;;14.06;72.33;99436.63;4982822;28;20042;-44
2023/07/12 04:06:50;;;;;;;5.75;2.50;;;;;;;14.04;72.18;99435.78;4981098;28;20455;-51
2023/07/12 04:09:17;;;;;;;9.15;1.98;;;;;;;14.03;72.61;99428.88;4983036;28;20057;-48
2023/07/12 04:11:44;;;;;;;5.85;1.95;;;;;;;14.02;72.79;99437.59;4980040;28;20506;-45
2023/07/12 04:14:10;;;;;;;4.40;2.08;;;;;;;14.00;73.01;99439.38;4977606;28;20057;-52
2023/07/12 04:16:37;;;;;;;7.03;2.13;;;;;;;14.00;72.89;99441.97;4975450;28;20054;-50
2023/07/12 04:19:03;;;;;;;8.93;1.90;;;;;;;13.98;72.62;99436.81;4983505;28;20046;-50
2023/07/12 04:21:30;;;;;;;6.95;1.92;;;;;;;13.99;72.76;99445.50;4985294;28;20068;-46
2023/07/12 04:23:57;;;;;;;4.65;2.00;;;;;;;13.97;72.81;99450.72;4980429;28;20042;-48
2023/07/12 04:26:23;;;;;;;8.02;2.30;;;;;;;13.98;73.48;99447.22;4984041;28;20061;-46
2023/07/12 04:28:51;;;;;;;8.40;2.50;;;;;;;13.99;73.29;99455.91;4979970;28;20054;-50
2023/07/12 04:31:20;;;;;;;5.07;2.08;;;;;;;13.98;73.25;99454.16;4978192;28;20044;-45
2023/07/12 04:33:48;;;;;;;5.00;2.58;;;;;;;13.97;73.92;99453.34;4978249;28;20070;-49
2023/07/12 04:36:17;;;;;;;4.03;1.90;;;;;;;13.99;73.25;99450.69;4981260;28;20046;-51
2023/07/12 04:38:44;;;;;;;5.15;2.17;;;;;;;13.99;73.48;99448.91;4976226;28;20136;-47
2023/07/12 04:41:11;;;;;;;9.93;2.22;;;;;;;14.01;74.00;99448.88;4981502;28;20050;-42
2023/07/12 04:43:38;;;;;;;7.03;2.35;;;;;;;14.03;73.08;99451.44;4978427;28;20503;-48
2023/07/12 04:46:05;;;;;;;8.40;2.55;;;;;;;14.03;73.31;99451.44;4976724;28;20068;-48
2023/07/12 04:48:33;;;;;;;5.78;2.28;;;;;;;14.05;73.60;99460.91;4984300;28;20753;-48
2023/07/12 04:51:01;;;;;;;4.82;2.42;;;;;;;14.07;73.42;99447.88;4985333;28;20050;-48
2023/07/12 04:53:27;;;;;;;3.55;1.60;;;;;;;14.07;73.95;99453.94;4981846;28;20053;-47
2023/07/12 04:55:55;;;;;;;7.15;2.50;;;;;;;14.09;73.53;99457.34;4981986;28;20133;-48
2023/07/12 04:58:22;;;;;;;5.55;2.15;;;;;;;14.11;73.55;99465.97;4985247;28;20498;-44
2023/07/12 05:00:48;;;;;;;4.68;2.42;;;;;;;14.14;73.33;99465.03;4972044;28;20050;-48
2023/07/12 05:03:16;;;;;;;5.90;2.25;;;;;;;14.18;73.81;99466.66;4986305;28;20137;-48
2023/07/12 05:05:43;;;;;;;5.55;2.40;;;;;;;14.22;74.16;99472.66;4981862;28;20038;-47
2023/07/12 05:08:11;;;;;;;7.95;1.73;;;;;;;14.29;73.67;99476.81;4984100;28;20057;-44
2023/07/12 05:10:38;;;;;;;7.43;2.13;;;;;;;14.34;74.40;99474.91;4982161;28;20082;-48
2023/07/12 05:13:04;;;;;;;9.13;3.30;;;;;;;14.40;74.29;99472.13;4984650;28;20053;-46
2023/07/12 05:15:31;;;;;;;8.27;2.20;;;;;;;14.49;73.49;99470.19;4981899;28;20043;-47
2023/07/12 05:17:58;;;;;;;7.15;2.42;;;;;;;14.53;73.90;99477.03;4977018;28;20321;-47
2023/07/12 05:20:25;;;;;;;7.95;2.55;;;;;;;14.55;73.80;99474.38;4978993;28;20509;-53
2023/07/12 05:22:51;;;;;;;6.63;1.60;;;;;;;14.57;73.96;99476.03;4975953;28;20055;-51
2023/07/12 05:25:18;;;;;;;7.72;2.42;;;;;;;14.57;74.16;99476.03;4974821;28;20062;-46
2023/07/12 05:27:45;;;;;;;6.63;2.13;;;;;;;14.59;73.58;99482.03;4980446;28;20525;-45
2023/07/12 05:30:12;;;;;;;4.10;1.80;;;;;;;14.62;73.72;99476.75;4976664;28;20051;-45
2023/07/12 05:32:40;;;;;;;7.18;2.42;;;;;;;14.65;74.18;99470.59;4979263;28;20695;-47
2023/07/12 05:35:08;;;;;;;7.55;2.30;;;;;;;14.74;74.39;99482.50;4976371;28;20133;-47
2023/07/12 05:37:34;;;;;;;4.95;2.03;;;;;;;14.83;74.07;99482.25;4982401;28;20055;-47
2023/07/12 05:40:01;;;;;;;6.30;2.42;;;;;;;14.93;74.92;99482.84;4977071;28;20049;-45
2023/07/12 05:42:28;;;;;;;5.00;2.22;;;;;;;15.06;74.53;99474.66;4984085;28;20125;-46
2023/07/12 05:44:54;;;;;;;5.88;2.28;;;;;;;15.16;74.23;99479.53;4981992;28;20113;-44
2023/07/12 05:47:21;;;;;;;8.13;2.28;;;;;;;15.28;74.25;99480.06;4982709;28;20050;-50
2023/07/12 05:49:48;;;;;;;5.45;3.00;;;;;;;15.39;73.99;99477.97;4985628;28;20590;-49
2023/07/12 05:52:15;;;;;;;8.85;2.42;;;;;;;15.52;74.14;99488.00;4988101;28;20053;-45
2023/07/12 05:54:41;;;;;;;7.45;2.88;;;;;;;15.65;74.49;99484.09;4987609;28;20047;-47
2023/07/12 05:57:08;;;;;;;4.93;2.03;;;;;;;15.78;73.87;99488.91;4982843;28;20054;-47
2023/07/12 05:59:34;;;;;;;4.00;2.05;;;;;;;15.89;73.65;99486.78;4984714;28;20049;-44
2023/07/12 06:02:01;;;;;;;3.95;2.25;;;;;;;16.02;73.88;99486.41;4986153;28;20061;-49
2023/07/12 06:04:28;;;;;;;5.15;2.20;;;;;;;16.17;74.14;99491.09;4979566;28;20038;-47
2023/07/12 06:06:54;;;;;;;6.25;1.95;;;;;;;16.35;73.85;99493.94;4988155;28;20046;-48
2023/07/12 06:09:21;;;;;;;2.58;1.58;;;;;;;16.50;73.66;99507.38;4985031;28;20045;-50
2023/07/12 06:11:48;;;;;;;5.55;2.03;;;;;;;16.65;73.16;99495.53;4984282;28;20046;-51
2023/07/12 06:14:14;;;;;;;8.43;1.83;;;;;;;16.79;73.51;99497.63;4983700;28;20046;-47
2023/07/12 06:16:43;;;;;;;4.30;1.73;;;;;;;16.92;72.44;99504.09;4985024;28;20050;-42
2023/07/12 06:19:10;;;;;;;4.25;1.80;;;;;;;17.02;71.56;99504.59;4986582;28;20050;-43
2023/07/12 06:21:37;;;;;;;3.65;1.70;;;;;;;17.13;71.49;99504.22;4986642;28;20058;-49
2023/07/12 06:24:05;;;;;;;4.10;1.58;;;;;;;17.23;71.78;99501.22;4989739;28;20662;-47
2023/07/12 06:26:32;;;;;;;2.80;1.27;;;;;;;17.34;71.50;99496.44;4979096;28;20046;-45
2023/07/12 06:29:00;;;;;;;3.53;1.25;;;;;;;17.42;70.71;99510.06;4982927;28;20047;-50
2023/07/12 06:31:27;;;;;;;2.88;1.33;;;;;;;17.55;71.02;99510.44;4986251;28;20081;-47
2023/07/12 06:33:59;;;;;;;4.28;2.45;;;;;;;17.68;70.09;99504.69;4985309;28;20453;-48
2023/07/12 06:36:26;;;;;;;3.67;1.52;;;;;;;17.78;69.54;99502.53;4984554;28;20047;-45
2023/07/12 06:38:53;;;;;;;2.78;1.52;;;;;;;17.89;69.15;99509.94;4982234;28;20046;-52
2023/07/12 06:41:20;;;;;;;5.60;1.55;;;;;;;17.99;68.60;99517.34;4985008;28;20180;-46
2023/07/12 06:43:47;;;;;;;3.25;1.40;;;;;;;18.16;68.70;99522.81;4985922;28;20042;-49
2023/07/12 06:46:14;;;;;;;6.38;1.92;;;;;;;18.33;68.45;99535.19;4986638;28;20057;-45
2023/07/12 06:48:41;;;;;;;3.70;1.52;;;;;;;18.55;68.82;99529.03;4984657;28;20058;-44
2023/07/12 06:51:08;;;;;;;4.63;1.52;;;;;;;18.73;68.06;99536.06;4986643;28;20513;-50
2023/07/12 06:53:35;;;;;;;2.40;1.55;;;;;;;18.90;67.22;99534.44;4986065;28;20062;-46
2023/07/12 06:56:02;;;;;;;2.42;1.25;;;;;;;19.02;66.69;99536.50;4981198;28;20624;-52
2023/07/12 06:58:29;;;;;;;4.53;1.20;;;;;;;19.23;66.38;99536.47;4982094;28;20509;-43
2023/07/12 07:00:55;;;;;;;2.15;1.00;;;;;;;19.45;66.17;99530.19;4986760;28;20725;-47
2023/07/12 07:03:22;;;;;;;3.83;2.67;;;;;;;19.67;65.92;99526.50;4983331;28;20593;-51
2023/07/12 07:05:49;;;;;;;2.25;0.77;;;;;;;19.92;65.53;99538.44;4985522;28;20060;-43
2023/07/12 07:08:19;;;;;;;3.45;1.42;;;;;;;20.16;64.53;99531.13;4982623;28;20057;-47
2023/07/12 07:10:51;;;;;;;3.40;1.00;;;;;;;20.31;63.11;99522.50;4966915;28;20054;-51
2023/07/12 07:13:17;;;;;;;2.33;0.90;;;;;;;20.41;62.73;99524.56;4973401;28;20142;-48
2023/07/12 07:15:46;;;;;;;2.28;1.10;;;;;;;20.58;62.70;99532.50;4980435;28;20054;-52
2023/07/12 07:18:13;;;;;;;2.42;1.02;;;;;;;20.72;61.71;99522.13;4979902;28;20098;-43
2023/07/12 07:20:41;;;;;;;1.65;0.80;;;;;;;20.81;61.54;99532.13;4981023;28;20557;-48
2023/07/12 07:23:09;;;;;;;2.35;0.65;;;;;;;20.98;61.26;99526.94;4976014;28;20051;-48
2023/07/12 07:25:37;;;;;;;2.20;1.10;;;;;;;21.17;60.57;99547.81;4980516;28;20197;-45
2023/07/12 07:28:04;;;;;;;4.85;1.02;;;;;;;21.38;60.69;99544.94;4982462;28;20054;-47
2023/07/12 07:30:31;;;;;;;1.90;0.73;;;;;;;21.57;59.90;99556.13;4977574;28;21196;-46
2023/07/12 07:32:58;;;;;;;2.85;1.55;;;;;;;21.72;59.38;99544.81;4979452;28;20050;-55
2023/07/12 07:35:25;;;;;;;2.03;0.95;;;;;;;21.93;59.17;99550.66;4981124;28;20034;-46
2023/07/12 07:37:52;;;;;;;2.72;1.05;;;;;;;22.05;57.77;99560.47;4983868;28;20057;-45
2023/07/12 07:40:19;;;;;;;2.50;1.30;;;;;;;22.13;57.60;99556.53;4977189;28;20050;-48
2023/07/12 07:42:46;;;;;;;1.40;1.00;;;;;;;22.30;57.67;99556.38;4982723;28;20054;-50
2023/07/12 07:45:12;;;;;;;3.22;1.00;;;;;;;22.47;56.78;99554.53;4985797;28;20073;-49
2023/07/12 07:47:39;;;;;;;3.15;0.93;;;;;;;22.65;56.58;99557.00;4979715;28;20085;-45
2023/07/12 07:50:07;;;;;;;1.40;0.82;;;;;;;22.74;55.75;99551.16;4984462;28;20054;-45
2023/07/12 07:52:34;;;;;;;2.08;1.08;;;;;;;22.85;55.98;99561.91;4983856;28;20050;-54
2023/07/12 07:55:01;;;;;;;3.13;0.77;;;;;;;22.92;54.73;99570.28;4976660;28;20069;-51
2023/07/12 07:57:28;;;;;;;1.88;0.73;;;;;;;23.01;55.06;99566.22;4982993;28;20062;-46
2023/07/12 07:59:55;;;;;;;1.85;1.27;;;;;;;23.14;53.99;99568.94;4986249;28;20090;-53
2023/07/12 08:02:22;;;;;;;2.55;0.75;;;;;;;23.21;53.81;99569.41;4978807;28;20042;-52
2023/07/12 08:04:50;;;;;;;3.67;1.25;;;;;;;23.28;53.05;99565.44;4985339;28;20054;-44
2023/07/12 08:07:16;;;;;;;7.07;0.98;;;;;;;23.35;53.39;99566.75;4985429;28;20053;-49
2023/07/12 08:09:43;;;;;;;2.83;1.02;;;;;;;23.47;52.79;99567.75;4976715;28;20070;-53
2023/07/12 08:12:10;;;;;;;2.72;0.82;;;;;;;23.63;52.52;99572.03;4979042;28;20038;-46
2023/07/12 08:14:37;;;;;;;1.27;0.75;;;;;;;23.75;52.39;99567.75;4978677;28;20046;-49
2023/07/12 08:17:04;;;;;;;2.45;0.85;;;;;;;23.93;52.72;99564.81;4980765;28;20050;-56
2023/07/12 08:19:30;;;;;;;1.90;0.63;;;;;;;24.05;51.16;99569.31;4978819;28;20046;-53
2023/07/12 08:21:57;;;;;;;1.13;0.45;;;;;;;24.10;50.93;99577.78;4985562;28;20105;-53
2023/07/12 08:24:23;;;;;;;2.25;0.75;;;;;;;24.24;51.27;99570.72;4981647;28;20061;-42
2023/07/12 08:26:50;;;;;;;2.33;0.65;;;;;;;24.41;51.15;99564.28;4979503;28;20227;-49
2023/07/12 08:29:32;;;;;;;2.60;0.73;;;;;;;24.62;51.05;99567.25;4974948;28;20781;-55
2023/07/12 08:31:59;;;;;;;4.32;0.90;;;;;;;24.75;50.33;99571.66;4980707;28;20043;-56
2023/07/12 08:34:26;;;;;;;1.40;0.75;;;;;;;24.83;49.76;99569.34;4984353;28;20131;-48
2023/07/12 08:36:53;;;;;;;3.20;0.75;;;;;;;24.87;48.75;99570.88;4984525;28;20149;-51
2023/07/12 08:39:19;;;;;;;1.63;0.40;;;;;;;24.91;49.29;99576.78;4978512;28;20439;-48
2023/07/12 08:41:46;;;;;;;1.02;0.47;;;;;;;25.02;49.16;99573.34;4983352;28;20046;-50
2023/07/12 08:44:14;;;;;;;0.75;0.63;;;;;;;25.10;48.71;99581.63;4980773;28;20077;-47
2023/07/12 08:46:51;;;;;;;1.45;0.70;;;;;;;25.20;48.41;99580.97;4982771;28;20061;-50
2023/07/12 08:49:18;;;;;;;1.13;0.47;;;;;;;25.32;48.41;99589.84;4979997;28;20046;-52
2023/07/12 08:51:45;;;;;;;1.40;0.60;;;;;;;25.40;47.77;99577.69;4973268;28;20051;-49
2023/07/12 08:54:23;;;;;;;2.35;0.85;;;;;;;25.40;47.05;99583.00;4978028;28;20062;-45
2023/07/12 08:57:11;;;;;;;1.45;0.68;;;;;;;25.31;45.92;99578.38;4980857;28;20054;-47
2023/07/12 08:59:38;;;;;;;0.80;0.70;;;;;;;25.30;46.81;99582.00;4980537;28;20066;-49
2023/07/12 09:02:17;;;;;;;0.98;0.85;;;;;;;25.30;44.97;99574.03;4981694;28;20050;-49
2023/07/12 09:04:44;;;;;;;2.75;0.85;;;;;;;25.25;45.88;99573.50;4984556;28;20054;-51
2023/07/12 09:07:11;;;;;;;2.78;0.63;;;;;;;25.23;46.09;99583.41;4986338;28;20050;-53
2023/07/12 09:09:39;;;;;;;2.17;0.70;;;;;;;25.31;46.25;99567.78;4980730;28;20051;-48
2023/07/12 09:12:20;;;;;;;1.40;0.77;;;;;;;25.45;46.80;99573.88;4982801;28;20108;-48
2023/07/12 09:14:52;;;;;;;1.30;1.05;;;;;;;25.63;46.71;99580.50;4982404;28;20058;-52
2023/07/12 09:17:24;;;;;;;2.83;0.63;;;;;;;25.81;46.74;99585.41;4987225;28;20081;-49
2023/07/12 09:19:50;;;;;;;3.42;0.88;;;;;;;25.85;46.28;99580.72;4980168;28;20046;-52
2023/07/12 09:22:18;;;;;;;2.15;1.90;;;;;;;25.75;46.16;99578.75;4986541;28;20422;-43
2023/07/12 09:24:51;;;;;;;1.42;0.57;;;;;;;25.50;45.76;99577.88;4985525;28;20061;-51
2023/07/12 09:27:23;;;;;;;2.25;1.00;;;;;;;25.41;46.32;99589.16;4985569;28;20050;-54
2023/07/12 09:30:06;;;;;;;1.40;1.17;;;;;;;25.58;46.72;99580.00;4985520;28;20050;-49
2023/07/12 09:32:35;;;;;;;2.90;0.68;;;;;;;25.83;46.59;99588.78;4980551;28;20050;-47
2023/07/12 09:35:21;;;;;;;2.60;0.80;;;;;;;25.90;46.17;99584.72;4981723;28;20150;-52
2023/07/12 09:37:57;;;;;;;1.52;0.80;;;;;;;25.99;46.09;99577.03;4981398;28;20050;-55
2023/07/12 09:40:25;;;;;;;2.30;0.68;;;;;;;26.23;46.03;99589.38;4979831;28;20066;-51
2023/07/12 09:42:57;;;;;;;3.67;1.02;;;;;;;26.37;44.85;99586.56;4983499;28;20046;-48
2023/07/12 09:45:31;;;;;;;1.02;0.57;;;;;;;26.47;45.15;99585.88;4983657;28;20471;-51
2023/07/12 09:48:11;;;;;;;1.60;0.60;;;;;;;26.53;44.75;99594.19;4985440;28;20053;-48
2023/07/12 09:50:49;;;;;;;1.60;0.65;;;;;;;26.55;45.43;99591.44;4984206;28;20580;-52
2023/07/12 09:56:06;;;;;;;2.80;2.50;;;;;;;26.56;44.60;99587.78;4996487;28;20409;-48
2023/07/12 09:58:41;;;;;;;2.22;1.85;;;;;;;26.53;44.97;99590.69;4976926;28;20053;-53
2023/07/12 10:04:09;;;;;;;0.50;0.30;;;;;;;26.36;44.50;99595.50;5082063;27;20941;-45
2023/07/12 10:06:42;;;;;;;2.35;0.95;;;;;;;26.35;44.90;99588.50;5018455;28;20045;-51
2023/07/12 10:09:14;;;;;;;4.10;0.93;;;;;;;26.39;44.36;99589.97;5040021;28;20464;-48
2023/07/12 10:14:21;;;;;;;1.45;0.65;;;;;;;26.11;44.32;99594.66;5010570;28;20817;-51
2023/07/12 10:16:52;;;;;;;4.40;0.82;;;;;;;26.00;44.70;99599.97;4999711;28;20121;-47
2023/07/12 10:19:24;;;;;;;7.63;0.90;;;;;;;25.82;44.41;99595.06;4999624;28;20049;-53
2023/07/12 10:21:53;;;;;;;1.50;0.77;;;;;;;25.70;44.11;99588.03;4992017;28;20065;-57
2023/07/12 10:24:28;;;;;;;2.65;0.88;;;;;;;25.47;44.31;99579.91;5031952;28;20038;-47
2023/07/12 10:26:56;;;;;;;4.10;1.15;;;;;;;25.40;44.99;99583.00;4998471;28;20054;-51
2023/07/12 10:29:32;;;;;;;2.67;1.13;;;;;;;25.48;45.54;99585.09;5000895;28;20690;-55
2023/07/12 10:32:02;;;;;;;4.45;0.80;;;;;;;25.57;45.39;99583.59;4998114;28;20053;-52
2023/07/12 10:34:38;;;;;;;12.80;2.42;;;;;;;25.74;45.61;99584.19;4994289;28;20049;-51
2023/07/12 10:37:14;;;;;;;10.38;2.25;;;;;;;25.77;45.34;99582.13;4990618;28;20047;-51
2023/07/12 10:39:41;;;;;;;1.58;1.00;;;;;;;25.84;45.63;99595.81;4997663;28;20057;-51
2023/07/12 10:42:18;;;;;;;;;;;;;;;25.85;45.97;99581.56;4995389;28;20569;-51
2023/07/12 10:44:51;;;;;;;1.40;0.70;;;;;;;26.12;45.58;99588.41;4998040;28;19925;-51
2023/07/12 10:47:20;;;;;;;1.02;0.55;;;;;;;26.27;45.41;99590.88;4993767;28;20046;-53
2023/07/12 10:49:57;;;;;;;1.33;0.50;;;;;;;26.39;44.77;99584.66;4992541;28;20715;-48
2023/07/12 10:52:27;;;;;;;2.58;0.60;;;;;;;26.47;44.37;99583.22;4992703;28;20041;-53
2023/07/12 10:55:17;;;;;;;1.45;0.40;;;;;;;26.43;44.04;99585.25;4994720;28;20046;-53
2023/07/12 10:57:48;;;;;;;1.13;0.68;;;;;;;26.52;44.65;99594.31;4986158;28;20418;-53
2023/07/12 11:00:26;;;;;;;4.88;0.95;;;;;;;26.46;43.47;99594.78;4999594;28;20053;-47
2023/07/12 11:05:46;;;;;;;3.65;2.20;;;;;;;26.44;44.43;99602.84;5015764;28;20757;-56
2023/07/12 11:13:47;;;;;;;4.38;0.90;;;;;;;26.57;44.42;99589.47;5009249;28;20414;-51
2023/07/12 11:16:16;;;;;;;3.58;1.52;;;;;;;26.56;43.49;99591.31;4989831;28;20054;-49
2023/07/12 11:18:57;;;;;;;3.90;0.98;;;;;;;26.52;43.38;99592.50;5032954;28;20107;-51
2023/07/12 11:24:21;;;;;;;6.57;0.80;;;;;;;26.48;44.02;99592.84;5057334;28;20380;-48
2023/07/12 11:26:58;;;;;;;4.70;1.02;;;;;;;26.42;43.74;99584.41;5004370;28;20069;-46
2023/07/12 11:35:19;;;;;;;2.03;1.83;;;;;;;26.44;43.97;99587.78;5030028;27;20417;-46
2023/07/12 11:37:49;;;;;;;2.50;1.73;;;;;;;26.61;43.93;99571.50;5019045;28;20046;-54
2023/07/12 11:40:22;;;;;;;3.47;1.60;;;;;;;26.69;44.22;99580.53;5018591;28;20053;-49
2023/07/12 11:42:50;;;;;;;2.03;1.73;;;;;;;26.80;43.40;99578.88;5021181;28;20429;-45
2023/07/12 11:45:20;;;;;;;7.13;1.85;;;;;;;26.89;42.81;99577.31;5017033;28;20078;-46
2023/07/12 11:47:49;;;;;;;3.45;1.75;;;;;;;26.93;43.49;99587.56;5020198;28;20053;-43
2023/07/12 11:50:20;;;;;;;3.42;1.55;;;;;;;26.92;42.91;99593.84;5020809;28;20064;-46
2023/07/12 11:52:48;;;;;;;1.67;1.58;;;;;;;26.81;43.22;99585.88;5004233;28;20053;-51
2023/07/12 11:55:19;;;;;;;3.13;1.73;;;;;;;26.67;43.22;99576.31;5020509;28;20046;-50
2023/07/12 11:57:48;;;;;;;2.50;1.77;;;;;;;26.60;43.02;99586.59;5020800;28;20052;-52
2023/07/12 12:02:56;;;;;;;2.30;0.88;;;;;;;26.59;43.07;99579.59;5050294;28;20385;-47
2023/07/12 12:05:31;;;;;;;1.88;1.10;;;;;;;26.65;42.42;99583.59;5019889;28;20041;-47
2023/07/12 12:07:59;;;;;;;2.97;1.02;;;;;;;26.65;42.68;99576.44;5010373;28;20057;-52
2023/07/12 12:10:32;;;;;;;2.10;0.60;;;;;;;26.67;42.91;99587.81;5018495;28;20045;-52
2023/07/12 12:12:59;;;;;;;2.30;0.77;;;;;;;26.79;42.79;99579.84;5060183;28;20053;-45
2023/07/12 12:15:30;;;;;;;2.42;0.60;;;;;;;26.98;42.89;99586.41;5035634;28;20060;-45
2023/07/12 12:18:04;;;;;;;2.65;0.90;;;;;;;27.12;43.24;99580.78;5023111;28;20059;-47